createdAt,value
2018-11-20T00:01:40.693Z,72.40
2018-11-20T00:04:31.271Z,71.80
2018-11-20T00:07:33.681Z,71.20
2018-11-20T00:10:27.052Z,71.10
2018-11-20T00:13:32.408Z,70.80
2018-11-20T00:16:21.651Z,70.50
2018-11-20T00:19:11.215Z,70.70
2018-11-20T00:25:07.312Z,70.20
2018-11-20T00:27:59.151Z,69.80
2018-11-20T00:30:48.368Z,70.10
2018-11-20T00:33:38.813Z,69.60
2018-11-20T00:36:30.755Z,70.20
2018-11-20T00:39:21.472Z,70.00
2018-11-20T00:42:11.951Z,70.10
2018-11-20T00:44:59.971Z,70.20
2018-11-20T00:47:59.567Z,70.10
2018-11-20T00:50:49.965Z,70.30
2018-11-20T00:53:46.025Z,70.20
2018-11-20T00:56:57.171Z,70.20
2018-11-20T00:59:53.191Z,70.00
2018-11-20T01:02:43.508Z,70.10
2018-11-20T01:05:39.723Z,69.70
2018-11-20T01:08:42.227Z,69.20
2018-11-20T01:11:30.894Z,67.80
2018-11-20T01:14:21.259Z,67.00
2018-11-20T01:17:23.583Z,67.60
2018-11-20T01:20:22.646Z,67.10
2018-11-20T01:23:04.852Z,68.00
2018-11-20T01:25:55.152Z,68.20
2018-11-20T01:28:45.433Z,68.40
2018-11-20T01:31:30.563Z,68.70
2018-11-20T01:34:18.688Z,69.20
2018-11-20T01:37:07.863Z,69.70
2018-11-20T01:39:54.799Z,70.00
2018-11-20T01:42:44.883Z,70.30
2018-11-20T01:45:30.316Z,70.80
2018-11-20T01:48:18.978Z,71.10
2018-11-20T01:51:23.804Z,71.20
2018-11-20T01:54:15.737Z,71.50
2018-11-20T01:57:04.709Z,71.80
2018-11-20T01:59:53.270Z,72.10
2018-11-20T02:02:43.754Z,72.20
2018-11-20T02:05:49.274Z,72.20
2018-11-20T02:08:39.811Z,72.30
2018-11-20T02:11:30.170Z,72.60
2018-11-20T02:14:36.593Z,72.60
2018-11-20T02:17:41.387Z,72.60
2018-11-20T02:20:46.642Z,72.80
2018-11-20T02:23:39.689Z,72.90
2018-11-20T02:26:35.532Z,73.00
2018-11-20T02:32:36.819Z,72.60
2018-11-20T02:35:28.005Z,72.60
2018-11-20T02:38:21.252Z,72.70
2018-11-20T02:41:20.719Z,72.60
2018-11-20T02:44:11.147Z,72.90
2018-11-20T02:47:01.343Z,72.90
2018-11-20T02:50:06.808Z,72.90
2018-11-20T02:52:54.782Z,73.10
2018-11-20T02:55:37.578Z,72.90
2018-11-20T02:58:26.689Z,72.90
2018-11-20T03:01:08.407Z,73.00
2018-11-20T03:03:57.145Z,73.00
2018-11-20T03:06:37.433Z,73.40
2018-11-20T03:12:29.026Z,73.10
2018-11-20T03:15:22.349Z,73.00
2018-11-20T03:18:18.650Z,73.10
2018-11-20T03:20:57.694Z,73.20
2018-11-20T03:23:54.302Z,73.30
2018-11-20T03:26:44.569Z,73.00
2018-11-20T03:30:15.949Z,72.60
2018-11-20T03:33:21.142Z,72.50
2018-11-20T03:36:11.644Z,72.50
2018-11-20T03:39:02.660Z,72.50
2018-11-20T03:41:51.608Z,72.20
2018-11-20T03:44:48.058Z,72.20
2018-11-20T03:47:38.357Z,72.40
2018-11-20T03:50:38.877Z,72.00
2018-11-20T03:53:24.142Z,71.60
2018-11-20T03:56:13.080Z,71.70
2018-11-20T03:59:05.496Z,71.70
2018-11-20T04:01:52.974Z,72.00
2018-11-20T04:04:41.944Z,71.50
2018-11-20T04:07:44.843Z,72.00
2018-11-20T04:10:46.978Z,71.80
2018-11-20T04:13:43.472Z,71.50
2018-11-20T04:19:29.849Z,71.70
2018-11-20T04:22:18.314Z,71.70
2018-11-20T04:25:07.213Z,71.80
2018-11-20T04:28:18.192Z,71.70
2018-11-20T04:32:01.366Z,71.60
2018-11-20T04:34:57.433Z,71.70
2018-11-20T04:37:49.032Z,71.80
2018-11-20T04:40:45.460Z,72.00
2018-11-20T04:43:41.655Z,72.00
2018-11-20T04:46:30.331Z,72.00
2018-11-20T04:49:19.272Z,72.40
2018-11-20T04:52:15.920Z,72.50
2018-11-20T04:55:10.934Z,72.50
2018-11-20T04:58:04.180Z,72.30
2018-11-20T05:00:57.150Z,72.60
2018-11-20T05:03:53.265Z,72.70
2018-11-20T05:06:42.287Z,72.60
2018-11-20T05:09:45.132Z,72.90
2018-11-20T05:12:44.529Z,73.00
2018-11-20T05:15:40.923Z,72.90
2018-11-20T05:21:28.932Z,73.00
2018-11-20T05:33:43.611Z,73.40
2018-11-20T05:39:59.621Z,73.50
2018-11-20T06:08:02.345Z,74.20
2018-11-20T06:10:51.319Z,74.40
2018-11-20T06:13:32.092Z,74.50
2018-11-20T06:16:21.012Z,74.70
2018-11-20T06:19:20.282Z,74.60
2018-11-20T06:22:02.712Z,74.60
2018-11-20T06:24:53.071Z,74.80
2018-11-20T06:27:38.934Z,74.50
2018-11-20T06:30:42.011Z,74.60
2018-11-20T06:33:50.692Z,74.60
2018-11-20T06:40:43.872Z,74.40
2018-11-20T06:43:33.012Z,74.50
2018-11-20T06:46:15.944Z,74.40
2018-11-20T06:49:25.231Z,74.60
2018-11-20T06:52:15.612Z,74.80
2018-11-20T06:55:04.512Z,75.10
2018-11-20T06:57:53.533Z,75.30
2018-11-20T07:00:42.831Z,75.60
2018-11-20T07:19:05.912Z,75.80
2018-11-20T07:21:44.011Z,74.60
2018-11-20T07:24:39.887Z,75.00
2018-11-20T07:27:37.871Z,75.50
2018-11-20T07:30:35.988Z,75.40
2018-11-20T07:36:49.047Z,75.50
2018-11-20T07:39:37.981Z,75.40
2018-11-20T07:42:37.031Z,75.40
2018-11-20T07:45:26.714Z,76.20
2018-11-20T07:48:21.461Z,75.20
2018-11-20T07:51:09.451Z,75.30
2018-11-20T07:54:01.432Z,74.80
2018-11-20T07:56:49.456Z,74.90
2018-11-20T07:59:49.696Z,74.70
2018-11-20T08:02:45.092Z,74.80
2018-11-20T08:05:37.993Z,74.80
2018-11-20T08:12:20.504Z,74.60
2018-11-20T08:15:08.072Z,74.50
2018-11-20T08:17:57.231Z,74.50
2018-11-20T08:20:51.829Z,74.40
2018-11-20T08:23:41.101Z,74.30
2018-11-20T08:26:32.992Z,74.10
2018-11-20T08:29:20.711Z,74.20
2018-11-20T08:32:08.691Z,74.10
2018-11-20T08:34:56.418Z,74.20
2018-11-20T08:37:44.231Z,74.50
2018-11-20T08:40:33.471Z,74.40
2018-11-20T08:43:21.232Z,74.50
2018-11-20T08:46:19.313Z,74.60
2018-11-20T08:49:11.172Z,74.70
2018-11-20T08:52:12.128Z,74.80
2018-11-20T08:55:07.332Z,74.70
2018-11-20T08:57:56.452Z,74.70
2018-11-20T09:00:51.348Z,74.80
2018-11-20T09:03:35.750Z,74.60
2018-11-20T09:06:40.311Z,74.70
2018-11-20T09:09:28.312Z,74.80
2018-11-20T09:12:15.892Z,74.80
2018-11-20T09:15:19.092Z,74.80
2018-11-20T09:18:08.192Z,74.80
2018-11-20T09:21:15.530Z,74.90
2018-11-20T09:24:03.033Z,75.00
2018-11-20T09:26:52.073Z,75.00
2018-11-20T09:29:50.488Z,74.80
2018-11-20T09:32:38.151Z,74.90
2018-11-20T09:35:26.021Z,74.80
2018-11-20T09:38:17.576Z,75.00
2018-11-20T09:41:11.572Z,75.00
2018-11-20T09:44:23.352Z,75.00
2018-11-20T09:47:24.291Z,74.90
2018-11-20T09:50:19.343Z,75.00
2018-11-20T09:53:06.995Z,75.20
2018-11-20T09:55:54.831Z,75.10
2018-11-20T09:59:01.991Z,75.30
2018-11-20T10:01:53.657Z,75.30
2018-11-20T10:04:42.345Z,75.40
2018-11-20T10:07:30.332Z,75.50
2018-11-20T10:10:17.099Z,75.60
2018-11-20T10:13:05.055Z,75.50
2018-11-20T10:16:12.191Z,75.50
2018-11-20T10:19:00.019Z,75.50
2018-11-20T10:21:49.240Z,75.50
2018-11-20T10:24:36.874Z,75.40
2018-11-20T10:27:26.231Z,75.50
2018-11-20T10:30:33.332Z,75.40
2018-11-20T10:33:31.431Z,75.20
2018-11-20T10:36:26.392Z,75.20
2018-11-20T10:39:14.252Z,75.50
2018-11-20T10:42:09.592Z,75.50
2018-11-20T10:44:58.619Z,75.30
2018-11-20T10:47:42.765Z,75.40
2018-11-20T10:50:30.391Z,75.40
2018-11-20T10:53:07.955Z,75.30
2018-11-20T10:56:02.795Z,75.30
2018-11-20T10:58:51.893Z,75.70
2018-11-20T11:01:41.011Z,75.80
2018-11-20T11:04:30.743Z,75.60
2018-11-20T11:07:19.545Z,75.80
2018-11-20T11:09:59.144Z,75.80
2018-11-20T11:12:51.022Z,75.80
2018-11-20T11:15:38.712Z,75.90
2018-11-20T11:18:26.315Z,76.00
2018-11-20T11:21:12.672Z,75.90
2018-11-20T11:24:00.253Z,75.50
2018-11-20T11:27:01.434Z,75.80
2018-11-20T11:29:49.218Z,75.90
2018-11-20T11:32:44.075Z,75.80
2018-11-20T11:35:51.214Z,75.80
2018-11-20T11:38:42.933Z,75.50
2018-11-20T11:41:30.773Z,75.80
2018-11-20T11:44:18.540Z,75.90
2018-11-20T11:47:07.714Z,76.10
2018-11-20T11:50:03.835Z,76.30
2018-11-20T11:53:32.153Z,76.30
2018-11-20T11:56:28.754Z,76.20
2018-11-20T11:59:17.875Z,76.00
2018-11-20T12:05:08.915Z,76.30
2018-11-20T12:08:00.536Z,76.40
2018-11-20T12:11:01.835Z,76.20
2018-11-20T12:13:53.493Z,76.30
2018-11-20T12:16:45.413Z,76.00
2018-11-20T12:19:40.138Z,76.10
2018-11-20T12:22:35.953Z,76.20
2018-11-20T12:25:45.250Z,76.10
2018-11-20T12:28:34.762Z,76.00
2018-11-20T12:31:25.944Z,75.90
2018-11-20T12:35:33.149Z,75.70
2018-11-20T12:38:15.016Z,75.60
2018-11-20T12:41:07.361Z,75.80
2018-11-20T12:44:01.528Z,75.80
2018-11-20T12:47:10.590Z,75.60
2018-11-20T12:50:04.594Z,75.40
2018-11-20T12:53:30.062Z,76.00
2018-11-20T13:17:19.236Z,75.60
2018-11-20T13:18:09.138Z,75.90
2018-11-20T13:20:08.124Z,75.70
2018-11-20T13:22:59.830Z,75.70
2018-11-20T13:26:07.034Z,75.90
2018-11-20T13:28:49.835Z,75.90
2018-11-20T13:31:42.115Z,76.00
2018-11-20T13:34:30.230Z,75.90
2018-11-20T13:37:18.275Z,76.00
2018-11-20T13:40:07.416Z,76.00
2018-11-20T13:42:58.764Z,75.90
2018-11-20T13:45:57.148Z,75.90
2018-11-20T13:48:49.479Z,75.60
2018-11-20T13:51:37.509Z,75.70
2018-11-20T13:54:32.614Z,75.80
2018-11-20T13:57:17.632Z,75.80
2018-11-20T14:00:15.734Z,75.80
2018-11-20T14:03:03.713Z,75.60
2018-11-20T14:05:53.013Z,75.60
2018-11-20T14:08:41.433Z,75.70
2018-11-20T14:11:36.428Z,75.80
2018-11-20T14:14:23.077Z,75.80
2018-11-20T14:17:27.313Z,75.90
2018-11-20T14:20:22.612Z,76.00
2018-11-20T14:26:29.229Z,76.10
2018-11-20T14:29:21.295Z,75.90
2018-11-20T14:32:16.447Z,76.20
2018-11-20T14:35:05.700Z,76.20
2018-11-20T14:37:53.325Z,76.30
2018-11-20T14:40:42.700Z,76.20
2018-11-20T14:43:21.518Z,76.10
2018-11-20T14:46:17.313Z,76.20
2018-11-20T14:49:05.496Z,76.60
2018-11-20T14:51:44.766Z,76.90
2018-11-20T14:54:28.785Z,78.00
2018-11-20T14:57:12.694Z,79.00
2018-11-20T15:00:07.813Z,80.50
2018-11-20T15:02:53.553Z,80.20
2018-11-20T15:05:52.473Z,80.60
2018-11-20T15:08:47.952Z,81.00
2018-11-20T15:12:04.990Z,81.80
2018-11-20T15:14:53.893Z,82.10
2018-11-20T15:17:59.769Z,82.30
2018-11-20T15:24:54.393Z,82.20
2018-11-20T15:28:11.633Z,81.90
2018-11-20T16:24:51.761Z,89.60
2018-11-20T16:28:27.738Z,88.10
2018-11-20T16:51:03.473Z,89.60
2018-11-20T16:54:18.410Z,88.70
2018-11-20T17:01:04.869Z,89.90
2018-11-20T17:04:29.151Z,90.40
2018-11-20T17:13:35.334Z,90.30
2018-11-20T17:17:49.612Z,90.60
2018-11-20T17:20:49.771Z,90.30
2018-11-20T17:43:00.661Z,90.70
2018-11-20T17:46:25.222Z,91.30
2018-11-20T17:49:34.326Z,91.00
2018-11-20T17:52:37.925Z,91.00
2018-11-20T17:55:31.294Z,90.20
2018-11-20T17:58:38.594Z,90.20
2018-11-20T18:01:31.394Z,90.50
2018-11-20T18:05:07.378Z,91.40
2018-11-20T18:07:56.574Z,91.00
2018-11-20T18:10:44.717Z,91.60
2018-11-20T18:13:39.675Z,90.90
2018-11-20T18:16:17.969Z,91.70
2018-11-20T18:19:01.614Z,91.80
2018-11-20T18:21:53.674Z,91.60
2018-11-20T18:24:45.514Z,92.00
2018-11-20T18:27:33.713Z,91.50
2018-11-20T18:30:31.428Z,92.20
2018-11-20T18:33:19.979Z,91.70
2018-11-20T18:36:14.793Z,91.00
2018-11-20T18:39:10.395Z,91.80
2018-11-20T18:41:58.174Z,91.10
2018-11-20T18:44:45.814Z,91.20
2018-11-20T18:47:34.474Z,92.10
2018-11-20T18:50:22.353Z,92.10
2018-11-20T18:53:08.896Z,91.90
2018-11-20T18:56:04.516Z,91.60
2018-11-20T18:58:53.679Z,91.80
2018-11-20T19:02:00.946Z,91.90
2018-11-20T19:05:01.042Z,91.90
2018-11-20T19:07:56.234Z,91.70
2018-11-20T19:10:48.258Z,92.10
2018-11-20T19:13:40.010Z,92.00
2018-11-20T19:16:41.271Z,91.50
2018-11-20T19:19:38.151Z,91.20
2018-11-20T19:22:26.953Z,92.00
2018-11-20T19:25:13.234Z,92.00
2018-11-20T19:28:09.253Z,91.90
2018-11-20T19:31:14.612Z,91.50
2018-11-20T19:34:03.102Z,91.20
2018-11-20T19:37:04.768Z,91.80
2018-11-20T19:39:58.473Z,91.40
2018-11-20T19:42:59.413Z,91.60
2018-11-20T19:45:47.393Z,91.50
2018-11-20T19:48:52.015Z,90.90
2018-11-20T19:51:43.893Z,91.30
2018-11-20T19:54:46.964Z,91.30
2018-11-20T19:57:38.933Z,91.10
2018-11-20T20:00:46.366Z,91.40
2018-11-20T20:03:34.373Z,91.30
2018-11-20T20:06:26.569Z,91.30
2018-11-20T20:09:33.821Z,91.10
2018-11-20T20:12:10.292Z,91.20
2018-11-20T20:15:02.332Z,91.40
2018-11-20T20:17:45.947Z,90.90
2018-11-20T20:20:36.136Z,90.30
2018-11-20T20:23:31.958Z,90.60
2018-11-20T20:26:30.194Z,90.90
2018-11-20T20:29:17.668Z,90.70
2018-11-20T20:32:05.393Z,90.70
2018-11-20T20:34:57.433Z,90.90
2018-11-20T20:37:55.984Z,90.50
2018-11-20T20:41:00.035Z,90.50
2018-11-20T20:43:52.106Z,90.50
2018-11-20T20:46:44.435Z,90.30
2018-11-20T20:49:42.438Z,90.30
2018-11-20T20:52:29.472Z,90.30
2018-11-20T20:55:36.635Z,90.00
2018-11-20T20:58:19.698Z,90.00
2018-11-20T21:01:08.856Z,90.20
2018-11-20T21:04:16.874Z,90.20
2018-11-20T21:07:04.516Z,89.80
2018-11-20T21:10:02.680Z,90.00
2018-11-20T21:12:50.378Z,89.70
2018-11-20T21:15:39.873Z,89.30
2018-11-20T21:18:26.874Z,89.70
2018-11-20T21:21:18.866Z,89.30
2018-11-20T21:24:26.386Z,89.10
2018-11-20T21:27:14.275Z,89.20
2018-11-20T21:30:09.293Z,87.80
2018-11-20T21:32:57.374Z,88.30
2018-11-20T21:35:46.898Z,88.60
2018-11-20T21:38:33.323Z,88.80
2018-11-20T21:41:21.173Z,88.60
2018-11-20T21:44:02.513Z,88.30
2018-11-20T21:46:50.138Z,88.60
2018-11-20T21:52:46.015Z,88.60
2018-11-20T21:55:33.753Z,88.10
2018-11-20T21:58:23.214Z,87.90
2018-11-20T22:01:14.513Z,88.20
2018-11-20T22:04:09.538Z,87.90
2018-11-20T22:06:57.331Z,88.50
2018-11-20T22:09:55.434Z,88.40
2018-11-20T22:12:43.026Z,88.70
2018-11-20T22:15:44.054Z,88.60
2018-11-20T22:18:42.922Z,88.50
2018-11-20T22:21:33.693Z,88.50
2018-11-20T22:24:38.073Z,88.60
2018-11-20T22:27:25.634Z,88.60
2018-11-20T22:30:05.817Z,88.90
2018-11-20T22:32:55.014Z,88.10
2018-11-20T22:35:42.975Z,88.50
2018-11-20T22:38:41.072Z,88.40
2018-11-20T22:41:34.085Z,88.60
2018-11-20T22:44:22.024Z,88.40
2018-11-20T22:47:09.793Z,88.90
2018-11-20T22:49:46.193Z,88.30
2018-11-20T22:52:34.014Z,88.40
2018-11-20T22:55:29.314Z,89.00
2018-11-20T22:58:16.790Z,88.80
2018-11-20T23:01:04.813Z,88.50
2018-11-20T23:03:53.913Z,87.90
2018-11-20T23:06:53.266Z,88.40
2018-11-20T23:09:23.481Z,88.50
2018-11-20T23:11:53.665Z,88.60
2018-11-20T23:14:24.044Z,88.30
2018-11-20T23:16:54.306Z,87.40
2018-11-20T23:19:24.473Z,88.90
2018-11-20T23:21:54.863Z,88.60
2018-11-20T23:24:26.235Z,88.10
2018-11-20T23:26:56.834Z,89.20
2018-11-20T23:29:27.043Z,88.70
2018-11-20T23:31:57.278Z,88.60
2018-11-20T23:34:27.572Z,89.10
2018-11-20T23:36:58.193Z,88.90
2018-11-20T23:39:28.463Z,88.50
2018-11-20T23:41:58.677Z,88.80
2018-11-20T23:44:28.873Z,89.00
2018-11-20T23:46:59.154Z,88.40
2018-11-20T23:49:29.374Z,89.00
2018-11-20T23:51:59.594Z,89.00
2018-11-20T23:54:29.873Z,89.00
2018-11-20T23:56:59.993Z,89.10
2018-11-20T23:59:30.194Z,89.10
